createdAt,value
2023-01-11T00:02:27.918Z,116.43
2023-01-11T00:04:57.388Z,115.03
2023-01-11T00:07:25.667Z,118.05
2023-01-11T00:09:53.357Z,116.00
2023-01-11T00:12:21.313Z,106.60
2023-01-11T00:14:49.279Z,109.57
2023-01-11T00:17:17.240Z,105.35
2023-01-11T00:19:44.978Z,108.07
2023-01-11T00:22:14.532Z,108.70
2023-01-11T00:24:42.195Z,99.78
2023-01-11T00:27:10.141Z,111.85
2023-01-11T00:29:38.021Z,112.13
2023-01-11T00:32:06.485Z,106.70
2023-01-11T00:34:34.170Z,121.07
2023-01-11T00:37:02.683Z,92.40
2023-01-11T00:39:31.751Z,100.22
2023-01-11T00:42:17.160Z,104.65
2023-01-11T00:45:02.623Z,107.28
2023-01-11T00:47:48.419Z,111.00
2023-01-11T00:50:16.533Z,108.85
2023-01-11T00:52:44.734Z,104.10
2023-01-11T00:55:13.827Z,110.40
2023-01-11T00:57:42.068Z,106.47
2023-01-11T01:00:11.076Z,115.40
2023-01-11T01:02:39.094Z,113.93
2023-01-11T01:05:08.036Z,109.60
2023-01-11T01:07:36.914Z,106.47
2023-01-11T01:10:05.770Z,110.28
2023-01-11T01:12:53.539Z,117.95
2023-01-11T01:15:21.995Z,107.38
2023-01-11T01:17:53.102Z,116.05
2023-01-11T01:20:21.091Z,119.25
2023-01-11T01:22:49.196Z,113.95
2023-01-11T01:25:17.674Z,126.57
2023-01-11T01:27:47.063Z,118.63
2023-01-11T01:30:16.467Z,119.43
2023-01-11T01:32:44.686Z,119.00
2023-01-11T01:35:12.467Z,121.45
2023-01-11T01:37:40.469Z,117.47
2023-01-11T01:40:09.431Z,128.27
2023-01-11T01:42:37.377Z,128.52
2023-01-11T01:45:18.285Z,127.40
2023-01-11T01:47:53.174Z,130.18
2023-01-11T01:50:24.247Z,132.48
2023-01-11T01:52:57.164Z,131.20
2023-01-11T01:55:29.256Z,139.27
2023-01-11T01:57:59.490Z,135.52
2023-01-11T02:00:28.713Z,121.78
2023-01-11T02:02:58.661Z,129.73
2023-01-11T02:05:26.920Z,124.57
2023-01-11T02:07:57.461Z,120.38
2023-01-11T02:10:27.897Z,126.55
2023-01-11T02:13:00.807Z,125.10
2023-01-11T02:15:30.831Z,125.30
2023-01-11T02:17:59.022Z,116.45
2023-01-11T02:20:39.555Z,113.57
2023-01-11T02:23:27.804Z,119.82
2023-01-11T02:26:31.598Z,123.75
2023-01-11T02:29:09.945Z,115.68
2023-01-11T02:31:45.315Z,115.55
2023-01-11T02:34:41.798Z,108.15
2023-01-11T02:37:19.507Z,109.53
2023-01-11T02:39:59.586Z,112.25
2023-01-11T02:42:53.938Z,107.90
2023-01-11T02:45:35.439Z,109.28
2023-01-11T02:48:12.466Z,110.00
2023-01-11T02:50:46.170Z,108.20
2023-01-11T02:53:21.195Z,115.72
2023-01-11T02:55:53.028Z,116.78
2023-01-11T02:58:25.065Z,116.27
2023-01-11T03:00:58.406Z,110.63
2023-01-11T03:03:27.986Z,108.63
2023-01-11T03:06:00.095Z,96.95
2023-01-11T03:08:59.918Z,96.68
2023-01-11T03:11:58.764Z,105.70
2023-01-11T03:14:35.150Z,108.78
2023-01-11T03:17:13.346Z,119.93
2023-01-11T03:19:46.958Z,109.47
2023-01-11T03:22:26.338Z,113.40
2023-01-11T03:24:58.900Z,112.70
2023-01-11T03:31:37.540Z,124.38
2023-01-11T03:34:17.699Z,99.18
2023-01-11T03:36:56.065Z,97.15
2023-01-11T03:39:28.274Z,99.68
2023-01-11T03:41:59.609Z,107.28
2023-01-11T03:44:31.562Z,96.45
2023-01-11T03:47:05.286Z,92.35
2023-01-11T03:49:38.603Z,87.93
2023-01-11T03:52:12.155Z,83.80
2023-01-11T03:54:41.750Z,86.18
2023-01-11T03:57:14.575Z,86.75
2023-01-11T03:59:43.094Z,87.50
2023-01-11T04:02:16.833Z,85.68
2023-01-11T04:04:46.819Z,81.32
2023-01-11T04:07:14.874Z,89.20
2023-01-11T04:09:43.014Z,94.18
2023-01-11T04:12:11.244Z,91.28
2023-01-11T04:14:39.338Z,105.65
2023-01-11T04:18:13.191Z,99.43
2023-01-11T04:20:42.790Z,102.00
2023-01-11T04:23:10.900Z,103.55
2023-01-11T04:25:39.138Z,103.68
2023-01-11T04:28:07.075Z,108.10
2023-01-11T04:30:35.981Z,101.57
2023-01-11T04:33:04.352Z,95.82
2023-01-11T04:35:32.643Z,104.35
2023-01-11T04:38:01.792Z,106.57
2023-01-11T04:40:29.718Z,94.03
2023-01-11T04:42:56.683Z,104.82
2023-01-11T04:45:24.823Z,111.57
2023-01-11T04:47:55.656Z,104.60
2023-01-11T04:50:24.329Z,110.38
2023-01-11T04:52:52.506Z,117.10
2023-01-11T04:55:22.124Z,107.28
2023-01-11T04:57:49.969Z,107.85
2023-01-11T05:00:18.874Z,110.32
2023-01-11T05:02:46.690Z,118.82
2023-01-11T05:05:14.917Z,115.68
2023-01-11T05:07:42.747Z,112.25
2023-01-11T05:10:11.815Z,114.68
2023-01-11T05:12:41.004Z,107.05
2023-01-11T05:15:10.351Z,99.88
2023-01-11T05:17:38.047Z,110.90
2023-01-11T05:20:07.771Z,107.80
2023-01-11T05:22:35.592Z,112.45
2023-01-11T05:25:03.619Z,114.45
2023-01-11T05:27:31.461Z,120.85
2023-01-11T05:30:00.943Z,122.68
2023-01-11T05:32:28.716Z,128.25
2023-01-11T05:34:56.840Z,130.68
2023-01-11T05:37:24.695Z,125.93
2023-01-11T05:39:52.675Z,127.22
2023-01-11T05:42:21.662Z,115.28
2023-01-11T05:45:07.992Z,118.90
2023-01-11T05:47:37.273Z,125.90
2023-01-11T05:50:06.159Z,118.60
2023-01-11T05:52:33.916Z,126.35
2023-01-11T05:55:02.079Z,139.75
2023-01-11T05:57:30.142Z,131.55
2023-01-11T05:59:58.298Z,128.88
2023-01-11T06:02:26.317Z,185.45
2023-01-11T06:04:55.907Z,354.92
2023-01-11T06:07:24.986Z,421.90
2023-01-11T06:09:53.437Z,401.15
2023-01-11T06:12:21.172Z,664.00
2023-01-11T06:14:49.255Z,499.08
2023-01-11T06:17:17.146Z,644.30
2023-01-11T06:19:45.331Z,738.92
2023-01-11T06:22:14.347Z,332.08
2023-01-11T06:24:42.445Z,337.63
2023-01-11T06:27:10.311Z,164.93
2023-01-11T06:29:38.276Z,149.95
2023-01-11T06:32:07.107Z,149.07
2023-01-11T06:34:35.241Z,204.68
2023-01-11T06:37:02.991Z,392.58
2023-01-11T06:39:32.494Z,691.22
2023-01-11T06:42:00.320Z,725.83
2023-01-11T06:44:28.274Z,653.58
2023-01-11T06:46:56.088Z,421.00
2023-01-11T06:49:24.404Z,193.25
2023-01-11T06:51:52.111Z,184.93
2023-01-11T06:54:23.022Z,213.30
2023-01-11T06:56:52.199Z,222.70
2023-01-11T06:59:20.290Z,194.77
2023-01-11T07:01:48.287Z,161.88
2023-01-11T07:04:17.122Z,199.27
2023-01-11T07:06:45.050Z,200.27
2023-01-11T07:09:13.450Z,368.95
2023-01-11T07:11:41.143Z,194.43
2023-01-11T07:14:12.074Z,176.80
2023-01-11T07:16:39.942Z,632.03
2023-01-11T07:19:08.223Z,917.00
2023-01-11T07:21:36.042Z,1334.45
2023-01-11T07:24:04.304Z,510.08
2023-01-11T07:26:33.030Z,559.83
2023-01-11T07:29:01.156Z,542.47
2023-01-11T07:31:30.384Z,289.63
2023-01-11T07:33:58.427Z,454.08
2023-01-11T07:36:26.271Z,246.38
2023-01-11T07:38:54.343Z,222.63
2023-01-11T07:41:39.273Z,176.68
2023-01-11T07:44:07.678Z,161.02
2023-01-11T07:46:37.001Z,152.63
2023-01-11T07:49:04.957Z,150.10
2023-01-11T07:51:32.755Z,146.27
2023-01-11T07:54:02.591Z,135.32
2023-01-11T07:56:30.803Z,147.20
2023-01-11T07:58:58.929Z,125.80
2023-01-11T08:01:26.998Z,113.45
2023-01-11T08:03:56.308Z,126.32
2023-01-11T08:06:24.163Z,114.90
2023-01-11T08:08:52.222Z,105.20
2023-01-11T08:11:37.758Z,99.80
2023-01-11T08:14:23.619Z,93.95
2023-01-11T08:16:51.883Z,85.75
2023-01-11T08:19:21.547Z,78.15
2023-01-11T08:21:50.993Z,76.85
2023-01-11T08:24:19.036Z,77.05
2023-01-11T08:26:47.068Z,76.07
2023-01-11T08:29:15.115Z,76.05
2023-01-11T08:31:44.960Z,76.72
2023-01-11T08:34:13.692Z,75.28
2023-01-11T08:36:42.790Z,75.25
2023-01-11T08:39:11.381Z,70.20
2023-01-11T08:41:39.402Z,68.57
2023-01-11T08:44:09.231Z,68.50
2023-01-11T08:46:38.049Z,71.35
2023-01-11T08:49:11.913Z,58.92
2023-01-11T08:51:40.133Z,50.15
2023-01-11T08:54:13.181Z,52.75
2023-01-11T08:56:41.347Z,49.72
2023-01-11T08:59:11.283Z,50.50
2023-01-11T09:01:39.290Z,45.45
2023-01-11T09:04:23.118Z,46.22
2023-01-11T09:06:51.729Z,48.00
2023-01-11T09:09:21.087Z,45.17
2023-01-11T09:11:54.923Z,45.60
2023-01-11T09:14:24.158Z,47.95
2023-01-11T09:16:51.981Z,40.70
2023-01-11T09:19:20.306Z,44.28
2023-01-11T09:21:48.499Z,32.85
2023-01-11T09:24:17.538Z,31.48
2023-01-11T09:26:46.648Z,33.60
2023-01-11T09:29:15.152Z,34.67
2023-01-11T09:31:42.923Z,36.38
2023-01-11T09:34:12.684Z,42.00
2023-01-11T09:36:41.046Z,40.58
2023-01-11T09:39:14.468Z,39.03
2023-01-11T09:42:11.105Z,31.00
2023-01-11T09:44:47.012Z,29.88
2023-01-11T09:47:20.014Z,27.45
2023-01-11T09:49:54.438Z,26.77
2023-01-11T09:52:28.944Z,28.52
2023-01-11T09:54:59.108Z,24.45
2023-01-11T09:57:43.794Z,28.58
2023-01-11T10:00:21.633Z,28.92
2023-01-11T10:03:13.327Z,32.42
2023-01-11T10:05:56.498Z,33.28
2023-01-11T10:18:26.286Z,30.48
2023-01-11T10:18:41.880Z,29.73
2023-01-11T10:20:38.492Z,26.42
2023-01-11T10:23:12.111Z,27.80
2023-01-11T10:25:50.460Z,32.67
2023-01-11T10:28:26.851Z,27.98
2023-01-11T10:31:11.257Z,28.08
2023-01-11T10:33:57.386Z,30.30
2023-01-11T10:36:51.643Z,27.40
2023-01-11T10:39:46.549Z,31.25
2023-01-11T10:42:21.589Z,27.48
2023-01-11T10:45:00.024Z,32.45
2023-01-11T10:47:37.053Z,17.30
2023-01-11T10:50:23.956Z,18.67
2023-01-11T10:52:57.483Z,19.80
2023-01-11T10:58:15.573Z,20.70
2023-01-11T11:00:51.089Z,21.05
2023-01-11T11:03:36.659Z,25.98
2023-01-11T11:06:10.077Z,21.42
2023-01-11T11:08:48.599Z,21.48
2023-01-11T11:11:22.277Z,15.43
2023-01-11T11:13:57.022Z,14.60
2023-01-11T11:16:40.800Z,13.38
2023-01-11T11:19:16.247Z,9.98
2023-01-11T11:21:44.837Z,13.45
2023-01-11T11:24:22.268Z,11.25
2023-01-11T11:26:55.151Z,11.52
2023-01-11T11:29:30.809Z,10.90
2023-01-11T11:32:00.833Z,10.77
2023-01-11T11:34:31.036Z,9.65
2023-01-11T11:37:01.523Z,9.48
2023-01-11T11:39:31.756Z,8.57
2023-01-11T11:42:07.164Z,10.48
2023-01-11T11:44:35.561Z,10.77
2023-01-11T11:47:05.401Z,9.02
2023-01-11T11:49:36.629Z,8.00
2023-01-11T11:52:06.706Z,8.95
2023-01-11T11:54:37.794Z,10.60
2023-01-11T11:57:15.907Z,7.63
2023-01-11T11:59:47.286Z,11.45
2023-01-11T12:02:25.170Z,12.57
2023-01-11T12:04:57.175Z,9.75
2023-01-11T12:07:28.453Z,9.88
2023-01-11T12:09:59.563Z,9.52
2023-01-11T12:12:29.524Z,10.20
2023-01-11T12:15:19.679Z,10.45
2023-01-11T12:17:47.969Z,9.77
2023-01-11T12:20:31.209Z,9.93
2023-01-11T12:23:18.144Z,11.20
2023-01-11T12:26:08.506Z,9.93
2023-01-11T12:29:00.894Z,8.38
2023-01-11T12:31:39.370Z,9.00
2023-01-11T12:34:16.854Z,9.98
2023-01-11T12:36:56.215Z,9.15
2023-01-11T12:39:36.970Z,11.65
2023-01-11T12:42:23.870Z,11.10
2023-01-11T12:45:04.294Z,9.32
2023-01-11T12:47:52.338Z,10.70
2023-01-11T12:50:24.882Z,9.30
2023-01-11T12:53:08.755Z,9.05
2023-01-11T12:55:55.378Z,8.93
2023-01-11T12:58:31.054Z,9.23
2023-01-11T13:01:20.892Z,8.35
2023-01-11T13:04:18.207Z,9.75
2023-01-11T13:06:53.689Z,8.52
2023-01-11T13:09:34.114Z,9.95
2023-01-11T13:12:11.154Z,8.00
2023-01-11T13:15:05.948Z,11.73
2023-01-11T13:17:41.807Z,10.10
2023-01-11T13:20:25.129Z,11.90
2023-01-11T13:22:59.570Z,8.90
2023-01-11T13:25:31.493Z,9.52
2023-01-11T13:28:06.663Z,10.98
2023-01-11T13:30:35.255Z,9.25
2023-01-11T13:33:07.294Z,11.93
2023-01-11T13:35:40.393Z,11.05
2023-01-11T13:38:16.702Z,11.20
2023-01-11T13:40:49.747Z,9.32
2023-01-11T13:43:22.249Z,12.07
2023-01-11T13:45:57.068Z,12.48
2023-01-11T13:48:28.282Z,11.40
2023-01-11T13:51:02.858Z,11.80
2023-01-11T13:53:38.364Z,14.23
2023-01-11T13:56:13.249Z,11.88
2023-01-11T13:58:52.916Z,13.80
2023-01-11T14:01:30.527Z,10.45
2023-01-11T14:04:05.869Z,13.77
2023-01-11T14:06:51.410Z,15.52
2023-01-11T14:09:45.269Z,14.77
2023-01-11T14:12:25.864Z,14.95
2023-01-11T14:15:11.363Z,13.30
2023-01-11T14:17:57.107Z,14.90
2023-01-11T14:20:33.362Z,12.60
2023-01-11T14:23:11.230Z,11.68
2023-01-11T14:26:02.180Z,13.00
2023-01-11T14:28:52.002Z,13.45
2023-01-11T14:31:48.390Z,13.27
2023-01-11T14:34:52.855Z,14.32
2023-01-11T14:37:52.759Z,16.23
2023-01-11T14:40:40.667Z,13.82
2023-01-11T14:43:28.610Z,16.42
2023-01-11T14:46:17.482Z,14.68
2023-01-11T14:48:53.414Z,14.18
2023-01-11T14:51:33.738Z,14.65
2023-01-11T14:54:07.959Z,16.27
2023-01-11T14:56:50.341Z,17.92
2023-01-11T14:59:36.845Z,14.45
2023-01-11T15:02:15.913Z,22.23
2023-01-11T15:05:05.356Z,24.52
2023-01-11T15:07:40.919Z,22.17
2023-01-11T15:10:41.814Z,16.60
2023-01-11T15:13:15.278Z,39.35
2023-01-11T15:16:01.267Z,31.92
2023-01-11T15:18:31.261Z,27.10
2023-01-11T15:21:04.887Z,23.02
2023-01-11T15:23:36.222Z,24.98
2023-01-11T15:26:06.649Z,22.35
2023-01-11T15:28:49.297Z,45.10
2023-01-11T15:31:34.493Z,49.78
2023-01-11T15:34:06.949Z,24.60
2023-01-11T15:36:56.239Z,22.55
2023-01-11T15:39:34.438Z,26.60
2023-01-11T15:42:21.568Z,43.22
2023-01-11T15:45:08.296Z,42.58
2023-01-11T15:47:55.926Z,40.95
2023-01-11T15:50:48.416Z,41.15
2023-01-11T15:53:55.159Z,44.88
2023-01-11T15:56:55.778Z,54.42
2023-01-11T15:59:54.289Z,37.25
2023-01-11T16:02:48.962Z,34.55
2023-01-11T16:05:22.366Z,38.65
2023-01-11T16:08:00.537Z,40.28
2023-01-11T16:10:49.599Z,52.33
2023-01-11T16:13:41.784Z,55.40
2023-01-11T16:18:50.397Z,56.75
2023-01-11T16:23:50.776Z,56.08
2023-01-11T16:26:22.253Z,65.82
2023-01-11T16:28:51.769Z,64.30
2023-01-11T16:31:20.450Z,60.65
2023-01-11T16:33:49.822Z,61.60
2023-01-11T16:36:21.006Z,54.20
2023-01-11T16:38:57.591Z,62.05
2023-01-11T16:41:29.960Z,58.85
2023-01-11T16:44:03.025Z,64.18
2023-01-11T16:47:16.843Z,58.90
2023-01-11T16:49:50.026Z,65.53
2023-01-11T16:52:38.987Z,65.43
2023-01-11T16:55:25.000Z,70.63
2023-01-11T16:57:57.370Z,72.75
2023-01-11T17:00:36.245Z,72.40
2023-01-11T17:03:20.717Z,75.32
2023-01-11T17:06:00.398Z,86.80
2023-01-11T17:08:31.682Z,79.05
2023-01-11T17:11:06.140Z,77.68
2023-01-11T17:14:18.905Z,75.78
2023-01-11T17:16:48.922Z,93.63
2023-01-11T17:19:21.028Z,86.05
2023-01-11T17:21:51.232Z,92.85
2023-01-11T17:24:23.856Z,83.45
2023-01-11T17:29:29.366Z,99.47
2023-01-11T17:32:00.316Z,74.72
2023-01-11T17:34:31.992Z,78.35
2023-01-11T17:37:00.415Z,74.05
2023-01-11T17:39:32.698Z,82.38
2023-01-11T17:42:22.275Z,82.38
2023-01-11T17:45:09.837Z,93.85
2023-01-11T17:47:40.117Z,96.13
2023-01-11T17:50:21.813Z,121.22
2023-01-11T17:52:55.473Z,185.60
2023-01-11T17:55:26.140Z,233.68
2023-01-11T17:58:17.390Z,205.70
2023-01-11T18:01:03.427Z,102.97
2023-01-11T18:03:32.202Z,113.05
2023-01-11T18:06:11.736Z,113.88
2023-01-11T18:08:40.110Z,107.80
2023-01-11T18:11:08.047Z,114.10
2023-01-11T18:13:37.182Z,95.80
2023-01-11T18:16:05.837Z,104.47
2023-01-11T18:18:42.802Z,107.13
2023-01-11T18:21:31.567Z,104.40
2023-01-11T18:24:25.101Z,109.53
2023-01-11T18:27:06.909Z,86.30
2023-01-11T18:29:50.266Z,60.03
2023-01-11T18:32:19.168Z,40.63
2023-01-11T18:34:53.287Z,47.95
2023-01-11T18:37:21.962Z,45.95
2023-01-11T18:39:51.935Z,64.30
2023-01-11T18:42:24.077Z,90.22
2023-01-11T18:44:53.376Z,140.82
2023-01-11T18:47:23.432Z,168.80
2023-01-11T18:49:52.607Z,145.05
2023-01-11T18:52:24.536Z,128.00
2023-01-11T18:54:52.459Z,97.60
2023-01-11T18:57:22.777Z,94.60
2023-01-11T18:59:52.167Z,94.68
2023-01-11T19:02:25.239Z,78.25
2023-01-11T19:04:55.110Z,86.80
2023-01-11T19:07:23.975Z,85.57
2023-01-11T19:09:52.256Z,86.43
2023-01-11T19:12:20.479Z,97.20
2023-01-11T19:14:48.189Z,93.90
2023-01-11T19:17:16.885Z,92.00
2023-01-11T19:19:46.215Z,88.05
2023-01-11T19:22:14.440Z,92.85
2023-01-11T19:24:42.276Z,92.97
2023-01-11T19:27:10.354Z,101.35
2023-01-11T19:29:38.031Z,97.03
2023-01-11T19:32:06.875Z,100.25
2023-01-11T19:34:36.069Z,84.65
2023-01-11T19:37:05.389Z,65.55
2023-01-11T19:39:33.166Z,55.53
2023-01-11T19:42:02.891Z,55.35
2023-01-11T19:44:32.271Z,72.57
2023-01-11T19:47:10.968Z,67.45
2023-01-11T19:49:40.030Z,68.05
2023-01-11T19:52:13.364Z,44.83
2023-01-11T19:54:42.782Z,39.55
2023-01-11T19:57:11.793Z,37.30
2023-01-11T19:59:39.578Z,28.23
2023-01-11T20:02:08.236Z,30.73
2023-01-11T20:04:37.070Z,30.23
2023-01-11T20:07:05.513Z,30.45
2023-01-11T20:09:37.460Z,28.67
2023-01-11T20:12:05.826Z,31.40
2023-01-11T20:14:33.914Z,26.25
2023-01-11T20:17:02.159Z,29.85
2023-01-11T20:19:29.973Z,37.05
2023-01-11T20:21:58.053Z,36.47
2023-01-11T20:24:29.421Z,27.88
2023-01-11T20:27:01.271Z,30.80
2023-01-11T20:29:29.607Z,43.78
2023-01-11T20:32:13.435Z,52.22
2023-01-11T20:34:46.379Z,53.80
2023-01-11T20:37:14.992Z,51.47
2023-01-11T20:39:42.687Z,56.83
2023-01-11T20:42:12.828Z,53.03
2023-01-11T20:44:40.580Z,71.53
2023-01-11T20:47:08.522Z,89.60
2023-01-11T20:49:36.504Z,88.47
2023-01-11T20:52:04.937Z,89.18
2023-01-11T20:54:32.730Z,87.47
2023-01-11T20:57:05.588Z,103.40
2023-01-11T20:59:34.847Z,104.35
2023-01-11T21:02:03.171Z,124.65
2023-01-11T21:04:31.291Z,124.10
2023-01-11T21:06:59.245Z,117.03
2023-01-11T21:09:27.294Z,113.28
2023-01-11T21:11:55.377Z,118.70
2023-01-11T21:14:24.023Z,117.05
2023-01-11T21:16:55.158Z,134.98
2023-01-11T21:19:23.767Z,135.90
2023-01-11T21:21:51.851Z,123.93
2023-01-11T21:24:20.725Z,114.18
2023-01-11T21:26:48.960Z,113.85
2023-01-11T21:29:16.695Z,103.22
2023-01-11T21:31:44.953Z,96.72
2023-01-11T21:34:14.758Z,65.13
2023-01-11T21:36:44.359Z,43.28
2023-01-11T21:39:14.748Z,48.53
2023-01-11T21:41:59.652Z,57.67
2023-01-11T21:44:33.171Z,80.50
2023-01-11T21:47:02.555Z,96.60
2023-01-11T21:49:32.560Z,69.85
2023-01-11T21:52:00.604Z,77.55
2023-01-11T21:54:28.517Z,73.80
2023-01-11T21:56:56.874Z,85.38
2023-01-11T21:59:25.429Z,73.22
2023-01-11T22:01:53.582Z,66.93
2023-01-11T22:04:22.167Z,60.42
2023-01-11T22:06:56.154Z,55.30
2023-01-11T22:09:26.654Z,58.35
2023-01-11T22:11:55.346Z,41.80
2023-01-11T22:14:23.384Z,44.67
2023-01-11T22:16:51.805Z,36.58
2023-01-11T22:19:20.176Z,33.25
2023-01-11T22:21:48.557Z,36.50
2023-01-11T22:24:17.979Z,28.35
2023-01-11T22:26:46.067Z,23.55
2023-01-11T22:29:15.032Z,24.75
2023-01-11T22:31:47.616Z,21.63
2023-01-11T22:34:16.806Z,26.60
2023-01-11T22:36:46.125Z,24.30
2023-01-11T22:39:15.504Z,27.48
2023-01-11T22:41:45.953Z,29.70
2023-01-11T22:44:14.225Z,27.73
2023-01-11T22:46:42.604Z,29.63
2023-01-11T22:49:11.370Z,21.85
2023-01-11T22:51:40.893Z,19.98
2023-01-11T22:54:09.198Z,27.38
2023-01-11T22:56:37.408Z,34.22
2023-01-11T22:59:06.501Z,32.85
2023-01-11T23:01:36.317Z,32.97
2023-01-11T23:04:05.254Z,35.33
2023-01-11T23:06:35.028Z,31.98
2023-01-11T23:09:03.217Z,26.00
2023-01-11T23:11:53.960Z,24.85
2023-01-11T23:14:23.462Z,28.67
2023-01-11T23:16:51.627Z,33.50
2023-01-11T23:19:20.541Z,40.90
2023-01-11T23:21:49.037Z,50.25
2023-01-11T23:24:18.026Z,39.75
2023-01-11T23:26:46.173Z,54.38
2023-01-11T23:29:14.235Z,67.18
2023-01-11T23:31:44.222Z,60.75
2023-01-11T23:34:13.161Z,81.15
2023-01-11T23:36:43.633Z,87.18
2023-01-11T23:39:14.020Z,93.38
2023-01-11T23:41:59.748Z,112.55
2023-01-11T23:44:28.118Z,104.15
2023-01-11T23:47:14.995Z,91.50
2023-01-11T23:49:43.979Z,78.80
2023-01-11T23:52:12.503Z,81.47
2023-01-11T23:54:40.282Z,84.75
2023-01-11T23:57:09.243Z,91.70
2023-01-11T23:59:37.144Z,77.70
